Time;durP1;ratioP1;P1;durP2;ratioP2;P2;SDS_P1;SDS_P2;PMS_P1;PMS_P2;Temp;Humidity;BMP_temperature;BMP_pressure;BME280_temperature;BME280_humidity;BME280_pressure;Samples;Min_cycle;Max_cycle;Signal;HPM_P1;HPM_P2
2022/06/26 00:00:15;;;;;;;7.75;2.03;;;;;;;27.93;43.50;96809.53;5114002;28;20110;-35
2022/06/26 00:02:40;;;;;;;9.40;2.50;;;;;;;27.92;43.30;96807.28;5114058;28;20023;-35
2022/06/26 00:05:07;;;;;;;5.28;1.92;;;;;;;27.93;43.30;96814.38;5112629;28;20085;-35
2022/06/26 00:07:34;;;;;;;7.60;2.88;;;;;;;27.96;43.24;96813.28;5113854;28;20027;-35
2022/06/26 00:10:01;;;;;;;6.22;2.13;;;;;;;27.89;43.17;96820.25;5112590;28;20023;-35
2022/06/26 00:12:26;;;;;;;5.57;2.00;;;;;;;27.93;43.06;96815.13;5113877;28;20031;-35
2022/06/26 00:14:52;;;;;;;5.90;1.98;;;;;;;27.95;42.94;96814.56;5114144;28;20027;-35
2022/06/26 00:17:17;;;;;;;5.50;2.22;;;;;;;27.85;43.39;96812.19;5113404;28;20034;-35
2022/06/26 00:19:43;;;;;;;6.70;1.70;;;;;;;27.84;43.18;96816.25;5113963;28;20024;-35
2022/06/26 00:22:08;;;;;;;7.22;2.15;;;;;;;27.86;43.10;96812.94;5113810;28;20391;-35
2022/06/26 00:24:35;;;;;;;5.28;1.73;;;;;;;27.87;42.95;96811.66;5113628;28;20035;-34
2022/06/26 00:27:06;;;;;;;6.57;2.35;;;;;;;27.86;42.90;96810.16;5113641;28;20349;-35
2022/06/26 00:29:32;;;;;;;7.88;2.20;;;;;;;27.84;43.19;96813.47;5112541;28;20055;-35
2022/06/26 00:31:59;;;;;;;6.88;2.60;;;;;;;27.88;42.72;96810.38;5113658;28;20122;-35
2022/06/26 00:34:24;;;;;;;7.57;1.88;;;;;;;27.84;43.32;96813.47;5112823;28;20038;-35
2022/06/26 00:36:50;;;;;;;5.78;2.10;;;;;;;27.82;43.20;96809.72;5112162;28;20024;-35
2022/06/26 00:39:15;;;;;;;4.03;1.88;;;;;;;27.86;43.21;96815.72;5113709;28;20085;-35
2022/06/26 00:41:41;;;;;;;5.43;2.08;;;;;;;27.84;43.33;96818.28;5113992;28;20042;-35
2022/06/26 00:44:17;;;;;;;6.57;1.80;;;;;;;27.82;43.34;96820.84;5113902;28;20030;-35
2022/06/26 00:46:44;;;;;;;8.30;2.63;;;;;;;27.83;43.26;96816.78;5113669;28;20050;-35
2022/06/26 00:49:10;;;;;;;7.72;2.70;;;;;;;27.79;43.01;96819.16;5113583;28;20029;-36
2022/06/26 00:51:40;;;;;;;7.25;2.10;;;;;;;27.82;43.04;96815.28;5113543;28;20015;-35
2022/06/26 00:54:07;;;;;;;9.93;2.33;;;;;;;27.80;42.95;96823.44;5113630;28;20023;-35
2022/06/26 00:56:35;;;;;;;5.28;1.73;;;;;;;27.83;43.07;96822.38;5113283;28;20056;-35
2022/06/26 00:59:01;;;;;;;8.52;2.45;;;;;;;27.79;43.16;96811.56;5113694;28;20027;-35
2022/06/26 01:01:27;;;;;;;7.00;2.40;;;;;;;27.80;43.38;96818.63;5113410;28;20424;-35
2022/06/26 01:03:52;;;;;;;5.05;2.08;;;;;;;27.82;43.41;96818.06;5112159;28;20027;-35
2022/06/26 01:06:18;;;;;;;5.80;2.10;;;;;;;27.82;42.94;96823.66;5113511;28;20027;-35
2022/06/26 01:08:45;;;;;;;5.65;1.90;;;;;;;27.82;43.40;96818.06;5113367;28;20088;-36
2022/06/26 01:11:26;;;;;;;5.70;2.30;;;;;;;27.76;43.32;96811.84;5113518;28;20023;-35
2022/06/26 01:13:55;;;;;;;8.75;2.58;;;;;;;27.78;43.31;96814.88;5113257;28;20026;-35
2022/06/26 01:16:24;;;;;;;8.25;2.50;;;;;;;27.77;43.23;96805.00;5113650;28;20026;-34
2022/06/26 01:18:54;;;;;;;6.25;1.90;;;;;;;27.76;42.99;96803.50;5113237;28;20070;-34
2022/06/26 01:21:21;;;;;;;9.00;2.67;;;;;;;27.80;43.01;96803.94;5113183;28;20031;-35
2022/06/26 01:23:48;;;;;;;6.55;2.00;;;;;;;27.77;43.38;96802.22;5111745;28;20024;-35
2022/06/26 01:26:14;;;;;;;5.93;2.13;;;;;;;27.71;43.58;96799.50;5113271;28;20110;-34
2022/06/26 01:28:39;;;;;;;9.55;2.67;;;;;;;27.72;43.52;96797.47;5113435;28;20091;-35
2022/06/26 01:31:05;;;;;;;6.20;2.05;;;;;;;27.67;43.50;96793.50;5116990;28;20367;-34
2022/06/26 01:33:30;;;;;;;6.30;2.15;;;;;;;27.70;43.31;96794.47;5117071;28;20027;-34
2022/06/26 01:35:57;;;;;;;7.20;2.42;;;;;;;27.72;43.46;96795.44;5116705;27;20395;-35
2022/06/26 01:38:23;;;;;;;6.93;2.50;;;;;;;27.74;43.41;96792.13;5116938;28;20409;-35
2022/06/26 01:40:52;;;;;;;6.85;1.92;;;;;;;27.74;43.26;96792.88;5115374;28;20026;-35
2022/06/26 01:43:20;;;;;;;5.22;2.40;;;;;;;27.71;43.66;96795.97;5116479;28;20051;-35
2022/06/26 01:45:49;;;;;;;5.80;2.03;;;;;;;27.73;43.80;96796.19;5115245;28;20028;-36
2022/06/26 01:48:16;;;;;;;6.68;1.85;;;;;;;27.73;43.80;96788.59;5116501;28;20027;-34
2022/06/26 01:50:42;;;;;;;7.68;2.13;;;;;;;27.71;44.26;96790.41;5115240;28;20027;-35
2022/06/26 01:53:08;;;;;;;6.50;2.10;;;;;;;27.69;44.30;96779.81;5116426;28;20164;-36
2022/06/26 01:55:34;;;;;;;8.60;2.92;;;;;;;27.72;44.22;96786.31;5116477;28;20052;-34
2022/06/26 01:58:02;;;;;;;6.47;2.58;;;;;;;27.68;44.19;96783.88;5116091;28;20122;-35
2022/06/26 02:00:33;;;;;;;9.02;2.67;;;;;;;27.71;44.00;96788.38;5116270;28;20028;-35
2022/06/26 02:03:00;;;;;;;5.90;2.25;;;;;;;27.66;44.48;96786.44;5116452;28;20420;-35
2022/06/26 02:05:27;;;;;;;5.82;2.42;;;;;;;27.70;44.03;96792.44;5116243;28;20047;-35
2022/06/26 02:07:52;;;;;;;8.02;2.30;;;;;;;27.73;44.04;96796.19;5116284;28;20023;-36
2022/06/26 02:15:48;;;;;;;5.25;2.40;;;;;;;27.63;45.08;96795.09;5115966;28;20030;-35
2022/06/26 02:18:14;;;;;;;6.88;2.25;;;;;;;27.63;44.89;96789.53;5116225;28;20019;-35
2022/06/26 02:20:40;;;;;;;9.00;2.55;;;;;;;27.72;44.47;96786.31;5115976;28;20027;-34
2022/06/26 02:23:05;;;;;;;8.32;2.67;;;;;;;27.73;44.15;96785.03;5114423;28;20507;-35
2022/06/26 02:25:31;;;;;;;7.05;2.20;;;;;;;27.69;44.76;96793.00;5115907;28;20031;-35
2022/06/26 02:27:57;;;;;;;8.93;2.75;;;;;;;27.65;44.74;96795.31;5116080;28;20102;-35
2022/06/26 02:30:22;;;;;;;8.63;2.53;;;;;;;27.68;44.72;96794.28;5115592;27;20388;-35
2022/06/26 02:32:48;;;;;;;7.03;2.10;;;;;;;27.65;44.87;96796.06;5115644;28;20058;-35
2022/06/26 02:35:13;;;;;;;3.85;2.22;;;;;;;27.64;45.19;96793.81;5115636;28;20023;-35
2022/06/26 02:37:39;;;;;;;5.43;2.55;;;;;;;27.70;44.74;96797.25;5115479;28;20107;-34
2022/06/26 02:40:05;;;;;;;8.43;2.40;;;;;;;27.65;44.94;96800.91;5113927;28;20081;-34
2022/06/26 02:42:31;;;;;;;6.65;2.50;;;;;;;27.71;44.42;96801.53;5115271;28;20114;-35
2022/06/26 02:44:56;;;;;;;6.20;2.00;;;;;;;27.64;45.13;96804.97;5115470;28;20099;-34
2022/06/26 02:47:22;;;;;;;9.35;2.30;;;;;;;27.66;45.03;96796.84;5114112;28;20031;-35
2022/06/26 02:49:47;;;;;;;5.63;2.13;;;;;;;27.67;44.65;96787.19;5115505;28;20020;-35
2022/06/26 02:52:13;;;;;;;6.03;2.35;;;;;;;27.67;44.90;96787.19;5115157;28;20023;-34
2022/06/26 02:54:38;;;;;;;7.18;3.10;;;;;;;27.67;45.10;96790.72;5115353;28;20065;-35
2022/06/26 02:57:04;;;;;;;5.45;2.13;;;;;;;27.67;45.04;96792.75;5114895;28;20055;-35
2022/06/26 02:59:29;;;;;;;8.63;2.05;;;;;;;27.63;45.30;96798.63;5115042;28;20031;-34
2022/06/26 03:01:57;;;;;;;6.85;2.78;;;;;;;27.66;45.39;96796.84;5115417;28;20024;-34
2022/06/26 03:04:23;;;;;;;8.13;2.40;;;;;;;27.61;45.31;96792.09;5114926;28;20031;-35
2022/06/26 03:06:50;;;;;;;8.05;2.80;;;;;;;27.65;45.32;96798.13;5113846;28;20084;-35
2022/06/26 03:09:16;;;;;;;8.30;2.47;;;;;;;27.67;45.00;96803.91;5114859;28;20360;-34
2022/06/26 03:11:41;;;;;;;9.77;2.67;;;;;;;27.63;45.48;96806.25;5115147;28;20030;-35
2022/06/26 03:14:10;;;;;;;6.25;2.80;;;;;;;27.66;45.22;96805.19;5114680;28;20011;-35
2022/06/26 03:16:35;;;;;;;6.47;2.75;;;;;;;27.61;45.92;96811.59;5114824;28;20031;-34
2022/06/26 03:19:02;;;;;;;5.82;2.83;;;;;;;27.60;45.69;96810.09;5114758;28;20077;-34
2022/06/26 03:21:28;;;;;;;8.10;3.22;;;;;;;27.64;45.43;96816.13;5113340;28;20028;-35
2022/06/26 03:24:02;;;;;;;6.43;2.42;;;;;;;27.62;45.73;96813.09;5114580;28;20034;-35
2022/06/26 03:26:33;;;;;;;6.68;2.60;;;;;;;27.67;45.29;96810.22;5114603;28;20024;-34
2022/06/26 03:28:59;;;;;;;8.70;2.80;;;;;;;27.68;45.20;96808.94;5115012;28;20448;-36
2022/06/26 03:31:25;;;;;;;4.88;2.88;;;;;;;27.62;45.35;96808.28;5114713;28;20041;-34
2022/06/26 03:33:51;;;;;;;7.22;2.67;;;;;;;27.63;45.57;96814.59;5114375;28;20020;-34
2022/06/26 03:36:17;;;;;;;7.63;2.97;;;;;;;27.67;45.60;96815.81;5114472;28;20038;-35
2022/06/26 03:38:42;;;;;;;5.75;2.83;;;;;;;27.62;45.77;96813.09;5113074;28;20027;-34
2022/06/26 03:41:08;;;;;;;5.47;2.75;;;;;;;27.66;45.42;96817.09;5114373;28;20102;-34
2022/06/26 03:43:34;;;;;;;6.95;2.65;;;;;;;27.65;45.83;96814.84;5114415;28;20024;-34
2022/06/26 03:46:00;;;;;;;6.47;2.60;;;;;;;27.57;46.27;96816.75;5113001;28;20024;-35
2022/06/26 03:48:25;;;;;;;7.00;2.58;;;;;;;27.57;46.20;96816.75;5114167;28;20042;-35
2022/06/26 03:50:51;;;;;;;5.65;2.58;;;;;;;27.63;45.87;96825.75;5114259;28;20019;-36
2022/06/26 03:53:17;;;;;;;7.43;2.72;;;;;;;27.65;45.61;96814.84;5114413;28;20487;-35
2022/06/26 03:55:42;;;;;;;6.30;2.50;;;;;;;27.62;45.61;96813.84;5114061;28;20024;-35
2022/06/26 03:58:08;;;;;;;8.52;2.80;;;;;;;27.65;45.91;96818.38;5113933;28;20043;-35
2022/06/26 04:00:36;;;;;;;5.47;2.50;;;;;;;27.66;45.49;96813.53;5114033;28;20028;-34
2022/06/26 04:03:04;;;;;;;7.20;2.85;;;;;;;27.65;46.04;96817.63;5113846;28;20055;-35
2022/06/26 04:05:30;;;;;;;6.13;2.72;;;;;;;27.63;45.64;96820.94;5114122;28;20058;-35
2022/06/26 04:07:56;;;;;;;7.03;2.97;;;;;;;27.59;45.84;96811.38;5114153;28;20502;-35
2022/06/26 04:10:22;;;;;;;9.13;2.83;;;;;;;27.52;46.34;96809.94;5113949;28;20027;-35
2022/06/26 04:12:47;;;;;;;6.82;2.95;;;;;;;27.57;45.74;96817.47;5113982;28;20499;-35
2022/06/26 04:15:13;;;;;;;9.70;3.28;;;;;;;27.60;46.22;96810.84;5113918;28;20452;-35
2022/06/26 04:17:38;;;;;;;8.27;2.70;;;;;;;27.61;45.79;96812.34;5113672;28;20016;-35
2022/06/26 04:20:05;;;;;;;6.60;2.63;;;;;;;27.62;45.87;96818.66;5114064;28;20043;-34
2022/06/26 04:22:30;;;;;;;6.38;2.65;;;;;;;27.58;45.79;96823.78;5113850;28;20027;-35
2022/06/26 04:24:56;;;;;;;5.03;2.60;;;;;;;27.62;45.85;96818.66;5112527;28;20027;-35
2022/06/26 04:27:21;;;;;;;5.53;2.53;;;;;;;27.60;45.88;96826.81;5113848;28;20463;-35
2022/06/26 04:29:47;;;;;;;6.07;2.35;;;;;;;27.61;45.66;96828.31;5113717;28;20023;-35
2022/06/26 04:32:12;;;;;;;10.18;3.13;;;;;;;27.60;45.69;96822.00;5112804;28;20024;-34
2022/06/26 04:34:38;;;;;;;11.30;2.75;;;;;;;27.61;46.14;96822.75;5113914;28;20115;-35
2022/06/26 04:37:04;;;;;;;7.57;2.53;;;;;;;27.62;46.07;96829.81;5112457;28;20082;-35
2022/06/26 04:39:30;;;;;;;6.30;2.50;;;;;;;27.59;46.09;96826.06;5113831;28;20054;-35
2022/06/26 04:41:56;;;;;;;9.57;2.50;;;;;;;27.61;45.58;96825.53;5113752;28;20063;-34
2022/06/26 04:44:22;;;;;;;6.68;2.50;;;;;;;27.61;45.87;96826.28;5113504;28;20044;-35
2022/06/26 04:46:47;;;;;;;6.75;2.38;;;;;;;27.59;45.97;96825.31;5113629;28;20024;-34
2022/06/26 04:49:13;;;;;;;10.18;2.90;;;;;;;27.61;45.85;96826.28;5113709;28;20023;-35
2022/06/26 04:51:39;;;;;;;6.28;2.30;;;;;;;27.61;45.83;96817.91;5113889;28;20020;-35
2022/06/26 04:54:07;;;;;;;5.20;2.30;;;;;;;27.58;46.32;96818.22;5113688;28;20015;-35
2022/06/26 04:56:33;;;;;;;6.25;2.90;;;;;;;27.62;45.74;96819.44;5113282;28;20117;-36
2022/06/26 04:58:59;;;;;;;9.18;2.72;;;;;;;27.63;45.72;96825.75;5113576;28;20064;-34
2022/06/26 05:01:26;;;;;;;7.90;2.85;;;;;;;27.59;46.13;96822.50;5113642;28;20027;-34
2022/06/26 05:03:52;;;;;;;8.88;2.50;;;;;;;27.62;46.09;96819.44;5115708;28;20080;-35
2022/06/26 05:06:18;;;;;;;6.65;2.40;;;;;;;27.62;45.77;96827.03;5117546;28;20023;-35
2022/06/26 05:08:45;;;;;;;6.90;2.60;;;;;;;27.59;45.96;96820.47;5116996;28;20028;-34
2022/06/26 05:11:11;;;;;;;7.15;2.83;;;;;;;27.61;45.77;96815.13;5117505;28;20156;-36
2022/06/26 05:13:36;;;;;;;6.82;2.60;;;;;;;27.61;46.08;96811.59;5117130;28;20035;-34
2022/06/26 05:16:02;;;;;;;6.60;2.78;;;;;;;27.58;46.07;96826.56;5117297;28;20432;-34
2022/06/26 05:18:28;;;;;;;4.28;2.10;;;;;;;27.59;45.84;96831.63;5117037;28;20490;-35
2022/06/26 05:20:54;;;;;;;4.85;2.35;;;;;;;27.61;46.24;96836.66;5116960;28;20094;-35
2022/06/26 05:23:20;;;;;;;7.68;2.70;;;;;;;27.58;46.00;96840.50;5117226;28;20432;-34
2022/06/26 05:25:47;;;;;;;5.22;2.28;;;;;;;27.60;45.77;96837.94;5116913;28;20022;-34
2022/06/26 05:28:13;;;;;;;5.68;2.42;;;;;;;27.60;45.75;96833.13;5115653;28;20061;-34
2022/06/26 05:30:39;;;;;;;5.10;2.42;;;;;;;27.59;45.73;96830.88;5116510;28;20027;-35
2022/06/26 05:33:05;;;;;;;7.40;1.90;;;;;;;27.62;46.05;96835.38;5115402;28;20115;-35
2022/06/26 05:35:31;;;;;;;7.05;2.50;;;;;;;27.57;45.82;96839.03;5115379;28;20072;-34
2022/06/26 05:37:57;;;;;;;5.28;2.30;;;;;;;27.53;46.28;96834.47;5116205;28;20439;-34
2022/06/26 05:40:22;;;;;;;5.70;2.42;;;;;;;27.58;45.80;96834.94;5116203;28;20030;-35
2022/06/26 05:42:48;;;;;;;7.22;2.50;;;;;;;27.54;45.88;96829.66;5115934;28;20053;-35
2022/06/26 05:45:15;;;;;;;6.55;2.03;;;;;;;27.53;46.28;96840.06;5117697;27;20024;-36
2022/06/26 05:47:41;;;;;;;4.80;2.47;;;;;;;27.56;46.04;96837.53;5122175;27;20026;-35
2022/06/26 05:50:06;;;;;;;5.05;2.25;;;;;;;27.57;45.64;96836.25;5135399;27;20590;-35
2022/06/26 05:52:32;;;;;;;4.38;2.20;;;;;;;27.53;46.34;96831.69;5120460;27;20102;-34
2022/06/26 05:54:58;;;;;;;7.80;2.50;;;;;;;27.56;46.09;96843.09;5112870;28;20061;-35
2022/06/26 05:57:25;;;;;;;6.32;2.42;;;;;;;27.56;46.03;96843.84;5114155;28;20508;-35
2022/06/26 05:59:51;;;;;;;5.22;2.28;;;;;;;27.56;46.10;96845.88;5114434;28;20026;-36
2022/06/26 06:02:16;;;;;;;6.30;2.40;;;;;;;27.56;45.79;96852.22;5114392;28;21263;-35
2022/06/26 06:04:42;;;;;;;5.70;2.47;;;;;;;27.53;46.03;96851.19;5127564;27;20533;-36
2022/06/26 06:07:08;;;;;;;6.88;2.55;;;;;;;27.49;45.69;96850.00;5134561;27;20072;-34
2022/06/26 06:09:33;;;;;;;6.10;2.35;;;;;;;27.49;45.88;96841.63;5134675;27;20058;-35
2022/06/26 06:11:59;;;;;;;6.35;2.47;;;;;;;27.40;46.49;96847.59;5134738;27;20030;-35
2022/06/26 06:14:24;;;;;;;4.97;2.30;;;;;;;27.51;46.16;96850.22;5133880;27;20447;-35
2022/06/26 06:16:51;;;;;;;6.60;2.17;;;;;;;27.52;46.09;96848.94;5134595;27;20027;-34
2022/06/26 06:19:17;;;;;;;4.65;2.03;;;;;;;27.38;46.43;96850.91;5134663;27;20027;-34
2022/06/26 06:21:42;;;;;;;8.20;2.70;;;;;;;27.47;45.85;96850.53;5134435;27;20034;-35
2022/06/26 06:24:08;;;;;;;7.20;2.92;;;;;;;27.46;46.23;96857.38;5134784;27;20050;-36
2022/06/26 06:26:34;;;;;;;8.13;2.45;;;;;;;27.27;46.61;96853.88;5134619;27;20139;-35
2022/06/26 06:29:00;;;;;;;7.22;2.25;;;;;;;27.36;46.61;96852.72;5134442;27;20428;-35
2022/06/26 06:31:25;;;;;;;7.43;2.65;;;;;;;27.31;46.39;96859.91;5134240;27;20034;-35
2022/06/26 06:33:51;;;;;;;4.65;1.98;;;;;;;27.40;46.31;96853.19;5134099;27;20105;-36
2022/06/26 06:36:17;;;;;;;10.45;2.83;;;;;;;27.21;46.71;96846.88;5134336;27;20394;-35
2022/06/26 06:38:43;;;;;;;6.78;2.38;;;;;;;27.38;46.09;96856.50;5134303;27;20553;-35
2022/06/26 06:41:09;;;;;;;6.00;2.40;;;;;;;27.38;46.30;96856.50;5120366;27;20032;-35
2022/06/26 06:43:34;;;;;;;5.63;2.28;;;;;;;27.39;46.01;96865.59;5113756;28;20375;-35
2022/06/26 06:46:00;;;;;;;4.18;2.08;;;;;;;26.83;47.78;96852.41;5115537;28;20332;-35
2022/06/26 06:48:25;;;;;;;13.45;2.47;;;;;;;26.88;47.24;96848.03;5115661;28;20031;-35
2022/06/26 06:50:52;;;;;;;5.80;1.80;;;;;;;27.02;46.99;96849.66;5115435;28;20491;-34
2022/06/26 06:53:20;;;;;;;10.07;2.63;;;;;;;27.08;46.83;96845.50;5115412;28;20038;-34
2022/06/26 06:55:48;;;;;;;5.68;2.47;;;;;;;27.08;46.52;96836.41;5115063;28;20031;-35
2022/06/26 06:58:14;;;;;;;7.38;2.35;;;;;;;26.81;47.49;96829.94;5115149;28;20380;-35
2022/06/26 07:00:40;;;;;;;5.13;1.98;;;;;;;26.99;46.56;96834.00;5115040;28;20490;-34
2022/06/26 07:03:06;;;;;;;8.23;2.88;;;;;;;27.01;46.58;96828.66;5113862;28;20114;-34
2022/06/26 07:05:32;;;;;;;7.53;2.55;;;;;;;26.94;46.25;96829.28;5115108;28;20491;-34
2022/06/26 07:07:58;;;;;;;9.27;2.38;;;;;;;27.03;46.23;96812.94;5115025;28;20047;-34
2022/06/26 07:10:24;;;;;;;11.27;2.45;;;;;;;27.14;45.92;96818.34;5114882;28;20506;-34
2022/06/26 07:12:54;;;;;;;8.82;2.20;;;;;;;27.05;46.22;96813.19;5114931;28;20368;-34
2022/06/26 07:15:21;;;;;;;8.50;2.65;;;;;;;27.06;46.45;96813.94;5115013;28;20020;-36
2022/06/26 07:17:47;;;;;;;10.13;2.22;;;;;;;26.83;46.48;96808.63;5114776;28;20020;-35
2022/06/26 07:20:12;;;;;;;8.63;2.33;;;;;;;26.66;46.00;96807.34;5115228;28;20045;-34
2022/06/26 07:22:38;;;;;;;10.55;2.92;;;;;;;26.58;46.15;96804.41;5114612;28;20361;-34
2022/06/26 07:25:03;;;;;;;6.95;2.30;;;;;;;26.73;46.33;96813.06;5114545;28;20020;-35
2022/06/26 07:27:29;;;;;;;6.55;2.47;;;;;;;26.47;47.26;96812.88;5112447;28;20065;-35
2022/06/26 07:29:55;;;;;;;7.85;2.53;;;;;;;26.59;46.59;96824.63;5114845;28;20027;-34
2022/06/26 07:32:20;;;;;;;8.38;2.28;;;;;;;26.69;46.34;96823.00;5114404;28;20125;-36
2022/06/26 07:34:47;;;;;;;7.72;2.50;;;;;;;26.83;46.07;96832.91;5114657;28;20019;-35
2022/06/26 07:37:13;;;;;;;8.93;2.17;;;;;;;26.83;46.30;96830.88;5114265;28;20027;-34
2022/06/26 07:39:38;;;;;;;7.78;2.35;;;;;;;26.94;45.91;96832.81;5114365;28;20020;-34
2022/06/26 07:42:04;;;;;;;6.05;2.42;;;;;;;26.91;46.08;96842.19;5114339;28;20471;-35
2022/06/26 07:44:30;;;;;;;8.63;2.72;;;;;;;26.84;45.75;96842.78;5114414;28;20452;-36
2022/06/26 07:46:57;;;;;;;6.45;2.30;;;;;;;27.09;45.30;96843.47;5114200;28;20092;-34
2022/06/26 07:49:23;;;;;;;8.90;2.35;;;;;;;27.20;44.78;96848.88;5113178;28;20103;-35
2022/06/26 07:51:48;;;;;;;8.48;2.60;;;;;;;26.94;45.66;96846.75;5114309;28;20098;-34
2022/06/26 07:54:14;;;;;;;10.43;2.45;;;;;;;27.01;45.67;96856.50;5113830;27;20103;-35
2022/06/26 07:56:40;;;;;;;5.65;2.35;;;;;;;27.13;45.15;96855.06;5114021;28;20357;-35
2022/06/26 07:59:07;;;;;;;8.82;2.42;;;;;;;27.07;44.95;96855.16;5114045;28;20069;-34
2022/06/26 08:01:32;;;;;;;8.98;2.20;;;;;;;27.23;44.79;96850.63;5114101;28;20034;-35
2022/06/26 08:03:58;;;;;;;10.18;2.60;;;;;;;27.28;44.80;96866.50;5113573;28;20027;-34
2022/06/26 08:06:24;;;;;;;7.10;2.25;;;;;;;27.30;44.20;96863.97;5112889;28;20019;-34
2022/06/26 08:08:51;;;;;;;3.55;1.83;;;;;;;27.28;44.33;96862.97;5112569;28;20024;-34
2022/06/26 08:11:16;;;;;;;6.13;1.80;;;;;;;27.38;43.39;96864.09;5112836;28;20455;-35
2022/06/26 08:13:42;;;;;;;6.78;1.95;;;;;;;27.33;43.87;96871.25;5112538;28;20031;-35
2022/06/26 08:16:08;;;;;;;9.20;2.22;;;;;;;27.45;43.19;96864.22;5113869;28;20547;-35
2022/06/26 08:18:34;;;;;;;5.43;1.95;;;;;;;27.53;43.08;96862.34;5113917;28;20027;-35
2022/06/26 08:22:00;;;;;;;7.85;2.33;;;;;;;27.38;44.06;96859.28;5112593;28;20061;-35
2022/06/26 08:23:45;;;;;;;7.38;2.13;;;;;;;27.45;43.80;96860.69;5113418;28;20027;-35
2022/06/26 08:26:10;;;;;;;9.38;2.50;;;;;;;27.48;43.27;96860.38;5114002;28;20467;-35
2022/06/26 08:28:37;;;;;;;6.43;2.05;;;;;;;27.48;43.20;96857.59;5114127;28;20358;-34
2022/06/26 08:31:03;;;;;;;9.90;2.40;;;;;;;27.54;43.14;96849.16;5113771;28;20035;-35
2022/06/26 08:33:28;;;;;;;6.63;2.17;;;;;;;27.54;42.76;96857.53;5113928;28;20023;-35
2022/06/26 08:35:54;;;;;;;7.32;2.15;;;;;;;27.57;42.89;96853.69;5114103;28;20099;-34
2022/06/26 08:38:19;;;;;;;6.75;2.03;;;;;;;27.57;42.76;96864.84;5115349;28;20023;-35
2022/06/26 08:40:47;;;;;;;11.70;1.98;;;;;;;27.55;42.79;96853.47;5117687;28;20020;-36
2022/06/26 08:43:13;;;;;;;5.15;2.28;;;;;;;27.59;42.60;96864.31;5105650;28;20024;-35
2022/06/26 08:45:41;;;;;;;8.75;2.42;;;;;;;27.46;42.63;96854.59;5096370;28;20028;-34
2022/06/26 08:48:08;;;;;;;6.20;2.20;;;;;;;27.50;42.47;96857.06;5097298;28;20027;-35
2022/06/26 08:50:34;;;;;;;8.88;2.30;;;;;;;27.54;43.10;96861.06;5097237;28;20052;-34
2022/06/26 08:53:01;;;;;;;5.18;1.73;;;;;;;27.58;42.34;96860.00;5097245;28;20425;-34
2022/06/26 08:55:27;;;;;;;7.70;2.22;;;;;;;27.54;42.44;96857.53;5096429;28;20460;-34
2022/06/26 08:57:53;;;;;;;6.05;2.10;;;;;;;27.58;42.46;96857.22;5115514;28;20097;-35
2022/06/26 09:00:19;;;;;;;10.82;2.20;;;;;;;27.52;42.33;96860.84;5114316;28;20020;-36
2022/06/26 09:02:46;;;;;;;8.65;2.38;;;;;;;27.55;42.70;96859.03;5115588;28;20421;-34
2022/06/26 09:05:12;;;;;;;5.75;2.08;;;;;;;27.54;42.71;96863.09;5114115;28;20483;-35
2022/06/26 09:07:51;;;;;;;7.82;2.10;;;;;;;27.61;42.44;96864.53;5115321;28;20020;-34
2022/06/26 09:10:17;;;;;;;5.68;1.88;;;;;;;27.63;42.10;96864.75;5115582;28;20024;-35
2022/06/26 09:12:54;;;;;;;6.53;2.13;;;;;;;27.59;42.39;96869.88;5115327;28;20421;-35
2022/06/26 09:15:21;;;;;;;8.82;2.17;;;;;;;27.59;42.15;96869.88;5115367;28;20112;-34
2022/06/26 09:18:01;;;;;;;6.47;2.40;;;;;;;27.57;42.42;96878.03;5115276;28;20427;-35
2022/06/26 09:20:31;;;;;;;4.57;1.80;;;;;;;27.53;41.78;96867.91;5115041;28;20037;-36
2022/06/26 09:22:59;;;;;;;7.07;2.13;;;;;;;27.56;42.46;96871.72;5114954;28;20034;-35
2022/06/26 09:25:45;;;;;;;6.68;2.08;;;;;;;27.54;42.37;96868.66;5115039;28;20024;-35
2022/06/26 09:28:15;;;;;;;3.75;1.70;;;;;;;27.56;42.01;96868.94;5115217;28;20027;-35
2022/06/26 09:30:54;;;;;;;6.95;1.85;;;;;;;27.56;41.47;96859.81;5114995;28;20032;-35
2022/06/26 09:33:31;;;;;;;5.43;2.08;;;;;;;27.56;41.51;96870.97;5114838;28;20446;-35
2022/06/26 09:35:58;;;;;;;4.90;1.77;;;;;;;27.63;41.34;96870.34;5114957;28;20031;-35
2022/06/26 09:38:34;;;;;;;6.50;1.90;;;;;;;27.56;41.16;96879.31;5113447;28;20034;-35
2022/06/26 09:41:02;;;;;;;7.68;1.65;;;;;;;27.59;40.98;96876.19;5114930;28;20035;-35
2022/06/26 09:43:36;;;;;;;10.88;2.60;;;;;;;27.64;40.74;96866.25;5114460;28;20031;-35
2022/06/26 09:46:05;;;;;;;7.60;2.08;;;;;;;27.61;40.79;96864.53;5114724;28;20027;-36
2022/06/26 09:48:32;;;;;;;7.20;1.80;;;;;;;27.54;40.91;96863.09;5114501;28;20042;-34
2022/06/26 09:50:58;;;;;;;5.82;1.63;;;;;;;27.49;41.04;96861.88;5113542;28;20418;-35
2022/06/26 09:53:24;;;;;;;5.60;1.80;;;;;;;27.60;40.83;96861.00;5114676;28;20055;-35
2022/06/26 09:55:52;;;;;;;4.18;2.03;;;;;;;27.57;40.77;96847.38;5114384;28;20112;-36
2022/06/26 09:58:19;;;;;;;12.20;2.10;;;;;;;27.62;40.29;96844.50;5112980;28;20050;-34
2022/06/26 10:06:25;;;;;;;4.82;1.92;;;;;;;27.66;39.77;96833.81;5114414;28;20096;-35
2022/06/26 10:08:52;;;;;;;9.35;2.13;;;;;;;27.61;39.54;96833.88;5114065;28;20027;-35
2022/06/26 10:11:19;;;;;;;10.65;2.88;;;;;;;27.55;39.11;96822.81;5114056;28;20415;-35
2022/06/26 10:13:46;;;;;;;9.05;2.38;;;;;;;27.66;39.27;96819.88;5114167;28;20039;-35
2022/06/26 10:16:24;;;;;;;9.05;2.20;;;;;;;27.60;39.39;96810.09;5114012;28;20032;-35
2022/06/26 10:19:28;;;;;;;5.55;1.90;;;;;;;27.52;38.92;96821.09;5112298;28;20035;-36
2022/06/26 10:21:54;;;;;;;8.27;1.80;;;;;;;27.64;38.84;96821.69;5093699;28;20427;-35
2022/06/26 10:24:20;;;;;;;10.77;1.58;;;;;;;27.70;37.65;96816.75;5093517;28;20031;-35
2022/06/26 10:26:57;;;;;;;11.00;2.00;;;;;;;27.64;38.30;96816.13;5093355;28;20039;-36
2022/06/26 10:29:39;;;;;;;6.75;2.33;;;;;;;27.49;35.66;96811.00;5093760;28;20151;-35
2022/06/26 10:32:07;;;;;;;5.50;2.10;;;;;;;27.54;37.27;96818.53;5093240;28;20031;-35
2022/06/26 10:34:33;;;;;;;11.18;2.25;;;;;;;27.59;35.83;96822.50;5093350;28;20074;-35
2022/06/26 10:37:03;;;;;;;5.80;1.70;;;;;;;27.70;36.82;96813.97;5093132;28;20392;-35
2022/06/26 10:39:56;;;;;;;6.72;1.80;;;;;;;27.74;36.44;96811.63;5093251;28;20028;-34
2022/06/26 10:45:20;;;;;;;6.35;1.73;;;;;;;27.67;36.78;96821.38;5093247;28;19963;-35
2022/06/26 10:47:58;;;;;;;6.80;1.60;;;;;;;27.69;36.44;96829.97;5093275;28;20085;-34
2022/06/26 10:50:38;;;;;;;7.80;1.95;;;;;;;27.68;36.68;96822.13;5093047;28;20038;-34
2022/06/26 10:53:29;;;;;;;11.18;2.03;;;;;;;27.73;37.11;96812.91;5091833;28;20357;-34
2022/06/26 10:56:03;;;;;;;10.27;1.90;;;;;;;27.76;36.97;96817.44;5092694;28;20031;-35
2022/06/26 10:58:31;;;;;;;12.55;2.83;;;;;;;27.73;36.94;96812.91;5092999;28;20048;-34
2022/06/26 11:01:00;;;;;;;7.45;1.80;;;;;;;27.68;37.29;96816.56;5091163;28;20027;-35
2022/06/26 11:03:29;;;;;;;8.52;2.30;;;;;;;27.70;36.77;96825.13;5092447;28;20109;-35
2022/06/26 11:06:08;;;;;;;8.55;1.90;;;;;;;27.74;37.03;96820.75;5092787;28;20024;-35
2022/06/26 11:08:42;;;;;;;8.65;1.90;;;;;;;27.70;37.16;96825.13;5092767;28;20202;-35
2022/06/26 11:11:17;;;;;;;3.58;1.38;;;;;;;27.73;37.17;96821.28;5092953;28;20026;-35
2022/06/26 11:13:54;;;;;;;8.60;1.92;;;;;;;27.56;37.21;96812.44;5092251;28;20029;-35
2022/06/26 11:16:31;;;;;;;12.55;2.08;;;;;;;27.71;37.06;96818.25;5104483;28;20046;-35
2022/06/26 11:18:58;;;;;;;6.65;1.95;;;;;;;27.70;37.06;96814.72;5101134;28;20156;-34
2022/06/26 11:21:25;;;;;;;11.40;2.90;;;;;;;27.76;36.75;96814.63;5093582;28;20105;-34
2022/06/26 11:23:51;;;;;;;6.75;1.92;;;;;;;27.84;37.04;96810.69;5092627;28;20024;-35
2022/06/26 11:26:20;;;;;;;8.05;2.08;;;;;;;27.82;37.14;96816.03;5095972;28;20392;-35
2022/06/26 11:29:03;;;;;;;7.88;1.92;;;;;;;27.81;36.99;96817.34;5103174;28;20028;-35
2022/06/26 11:31:31;;;;;;;10.60;1.90;;;;;;;27.76;36.80;96820.97;5092202;28;20396;-35
2022/06/26 11:34:15;;;;;;;7.95;2.10;;;;;;;27.88;37.10;96813.91;5097930;28;20032;-36
2022/06/26 11:36:55;;;;;;;10.02;2.05;;;;;;;27.79;36.57;96816.38;5093438;28;20350;-34
2022/06/26 11:39:23;;;;;;;7.85;2.15;;;;;;;27.63;37.08;96811.81;5093241;28;20461;-34
2022/06/26 11:41:48;;;;;;;7.85;1.60;;;;;;;27.60;36.60;96813.63;5095627;28;20168;-35
2022/06/26 11:44:14;;;;;;;5.22;1.65;;;;;;;27.75;36.39;96802.00;5091896;28;20520;-34
2022/06/26 11:46:40;;;;;;;7.40;1.77;;;;;;;27.80;36.18;96809.50;5092232;28;20024;-34